.
WxDataArchive / Data Records for 2010-04-22
2010-04-21 April 2010 2010-04-23

Data Records for Thursday, 22 April 2010

Time	Temp	Chill	HIndex	Humid	Dewpt	 Wind 	HiWind	WindDir	Rain 	Barom 
-----	----	-----	------	-----	-----	------	------	-------	-----	----- 
00:00	47.9	47.9	47.9	70	38.6	0	0	---	0.00	29.803 
00:05	47.6	47.6	47.6	71	38.7	0	0	---	0.00	29.803 
00:10	47.3	47.3	47.3	72	38.7	0	0	---	0.00	29.803 
00:15	47.0	47.0	47.0	73	38.8	0	0	---	0.00	29.801 
00:20	46.8	46.8	46.8	73	38.6	0	0	---	0.00	29.801 
00:25	46.5	46.5	46.5	73	38.3	0	0	---	0.00	29.801 
00:30	46.2	46.2	46.2	74	38.4	0	0	---	0.00	29.800 
00:35	46.1	46.1	46.1	74	38.3	0	0	---	0.00	29.800 
00:40	46.0	46.0	46.0	74	38.2	0	0	---	0.00	29.800 
00:45	45.8	45.8	45.8	75	38.3	0	0	---	0.00	29.796 
00:50	45.7	45.7	45.7	75	38.2	0	0	---	0.00	29.796 
00:55	45.4	45.4	45.4	76	38.3	0	0	---	0.00	29.796 
01:00	45.4	45.4	45.4	76	38.3	0	0	---	0.00	29.795 
01:05	45.2	45.2	45.2	77	38.4	0	0	---	0.00	29.795 
01:10	45.1	45.1	45.1	77	38.3	0	0	---	0.00	29.795 
01:15	44.9	44.9	44.9	77	38.1	0	0	---	0.00	29.792 
01:20	44.8	44.8	44.8	78	38.4	0	0	---	0.00	29.792 
01:25	44.6	44.6	44.6	78	38.2	0	0	---	0.00	29.792 
01:30	44.5	44.5	44.5	78	38.1	0	0	---	0.00	29.793 
01:35	44.3	44.3	44.3	79	38.2	0	0	---	0.00	29.793 
01:40	44.2	44.2	44.2	79	38.1	0	0	---	0.00	29.793 
01:45	44.1	44.1	44.1	80	38.3	0	0	---	0.00	29.794 
01:50	43.9	43.9	43.9	80	38.1	0	0	---	0.00	29.794 
01:55	44.1	44.1	44.1	81	38.6	0	0	---	0.00	29.794 
02:00	44.2	44.2	44.2	81	38.7	0	0	---	0.00	29.796 
02:05	44.6	44.6	44.6	80	38.8	0	1	338	0.00	29.796 
02:10	45.4	45.4	45.4	79	39.3	0	0	---	0.00	29.796 
02:15	46.1	46.1	46.1	77	39.3	0	1	338	0.00	29.803 
02:20	46.4	46.4	46.4	75	38.9	0	1	338	0.00	29.803 
02:25	46.7	46.7	46.7	74	38.9	0	1	338	0.00	29.803 
02:30	46.7	46.7	46.7	74	38.9	0	0	---	0.00	29.803 
02:35	46.7	46.7	46.7	73	38.5	0	0	---	0.00	29.803 
02:40	46.5	46.5	46.5	74	38.7	0	1	338	0.00	29.803 
02:45	46.5	46.5	46.5	74	38.7	0	0	---	0.00	29.803 
02:50	46.5	46.5	46.5	74	38.7	0	1	338	0.00	29.803 
02:55	46.5	46.5	46.5	74	38.7	0	0	---	0.00	29.803 
03:00	46.7	46.7	46.7	73	38.5	0	1	338	0.00	29.804 
03:05	46.8	46.8	46.8	73	38.6	0	0	---	0.00	29.804 
03:10	46.8	46.8	46.8	73	38.6	0	1	338	0.00	29.804 
03:15	47.0	47.0	47.0	73	38.8	0	1	338	0.00	29.804 
03:20	47.0	47.0	47.0	73	38.8	0	0	---	0.00	29.804 
03:25	46.8	46.8	46.8	73	38.6	0	0	---	0.00	29.804 
03:30	46.8	46.8	46.8	73	38.6	0	0	---	0.00	29.803 
03:35	46.8	46.8	46.8	73	38.6	0	0	---	0.00	29.803 
03:40	46.8	46.8	46.8	73	38.6	0	1	338	0.00	29.803 
03:45	47.0	47.0	47.0	72	38.4	0	1	338	0.00	29.809 
03:50	47.0	47.0	47.0	72	38.4	0	1	338	0.00	29.809 
03:55	47.0	47.0	47.0	72	38.4	0	1	338	0.00	29.809 
04:00	47.0	47.0	47.0	73	38.8	0	2	0	0.00	29.805 
04:05	47.0	47.0	47.0	72	38.4	1	5	22	0.00	29.805 
04:10	47.0	47.0	47.0	72	38.4	0	3	135	0.00	29.805 
04:15	46.8	46.8	46.8	73	38.6	0	2	68	0.00	29.811 
04:20	46.7	46.7	46.7	73	38.5	0	2	68	0.00	29.811 
04:25	46.7	46.7	46.7	74	38.9	0	1	68	0.00	29.811 
04:30	46.5	46.5	46.5	76	39.3	1	6	45	0.00	29.819 
04:35	46.4	46.4	46.4	78	39.9	0	2	68	0.00	29.819 
04:40	46.1	46.1	46.1	80	40.3	0	3	112	0.00	29.819 
04:45	45.7	45.7	45.7	81	40.2	0	2	90	0.00	29.830 
04:50	45.4	45.4	45.4	82	40.2	0	2	90	0.00	29.830 
04:55	44.9	44.9	44.9	83	40.1	1	5	90	0.00	29.830 
05:00	44.6	44.6	44.6	83	39.8	2	10	90	0.00	29.825 
05:05	44.3	44.3	44.3	84	39.8	2	10	68	0.00	29.825 
05:10	44.1	44.1	44.1	84	39.6	1	4	68	0.00	29.825 
05:15	43.9	43.9	43.9	84	39.4	3	6	112	0.00	29.824 
05:20	43.6	43.6	43.6	84	39.1	0	2	112	0.00	29.824 
05:25	43.5	43.5	43.5	84	39.0	1	4	112	0.00	29.824 
05:30	43.2	43.2	43.2	84	38.7	1	4	90	0.00	29.833 
05:35	42.9	42.9	42.9	84	38.4	1	3	135	0.00	29.833 
05:40	42.8	42.8	42.8	84	38.3	1	3	135	0.00	29.833 
05:45	42.5	42.5	42.5	84	38.0	1	3	112	0.00	29.833 
05:50	42.2	42.2	42.2	84	37.7	0	1	112	0.00	29.833 
05:55	42.1	42.1	42.1	84	37.6	0	2	112	0.00	29.833 
06:00	41.9	41.9	41.9	84	37.4	0	2	112	0.00	29.838 
06:05	41.8	41.8	41.8	84	37.3	1	3	112	0.00	29.838 
06:10	41.6	41.6	41.6	84	37.1	1	4	112	0.00	29.838 
06:15	41.5	41.5	41.5	84	37.0	0	3	112	0.00	29.844 
06:20	41.3	41.3	41.3	84	36.8	0	2	112	0.00	29.844 
06:25	41.3	41.3	41.3	84	36.8	0	2	112	0.00	29.844 
06:30	41.5	41.5	41.5	84	37.0	1	3	112	0.00	29.842 
06:35	41.5	41.5	41.5	84	37.0	1	2	112	0.00	29.842 
06:40	41.6	41.6	41.6	84	37.1	2	5	112	0.00	29.842 
06:45	41.6	41.6	41.6	84	37.1	1	4	112	0.00	29.838 
06:50	41.6	41.6	41.6	84	37.1	0	2	112	0.00	29.838 
06:55	41.6	41.6	41.6	84	37.1	0	1	112	0.00	29.838 
07:00	41.5	41.5	41.5	84	37.0	0	2	112	0.00	29.842 
07:05	41.5	41.5	41.5	85	37.3	1	3	112	0.00	29.842 
07:10	41.5	41.5	41.5	85	37.3	1	3	112	0.00	29.842 
07:15	41.6	41.6	41.6	85	37.4	0	2	112	0.00	29.845 
07:20	41.6	41.6	41.6	85	37.4	1	3	112	0.00	29.845 
07:25	41.8	41.8	41.8	85	37.6	1	3	112	0.00	29.845 
07:30	41.9	41.9	41.9	85	37.7	1	3	112	0.00	29.849 
07:35	42.1	42.1	42.1	84	37.6	2	6	112	0.00	29.849 
07:40	42.1	42.1	42.1	84	37.6	0	2	68	0.00	29.849 
07:45	42.1	42.1	42.1	84	37.6	0	2	90	0.00	29.859 
07:50	42.1	42.1	42.1	84	37.6	0	2	90	0.00	29.859 
07:55	42.2	42.2	42.2	84	37.7	0	1	90	0.00	29.859 
08:00	42.3	42.3	42.3	84	37.8	0	2	90	0.00	29.867 
08:05	42.5	42.5	42.5	83	37.7	1	4	90	0.00	29.867 
08:10	42.6	42.6	42.6	83	37.8	0	4	90	0.00	29.867 
08:15	42.8	42.8	42.8	82	37.7	1	2	112	0.00	29.874 
08:20	42.9	42.9	42.9	82	37.8	0	2	112	0.00	29.874 
08:25	43.2	43.2	43.2	81	37.8	0	1	112	0.00	29.874 
08:30	43.6	43.6	43.6	79	37.5	1	6	112	0.00	29.878 
08:35	44.2	44.2	44.2	78	37.8	1	5	112	0.00	29.878 
08:40	44.2	44.2	44.2	76	37.1	3	5	112	0.00	29.878 
08:45	44.5	44.5	44.5	77	37.7	0	2	90	0.00	29.886 
08:50	44.8	44.8	44.8	75	37.4	1	5	112	0.00	29.886 
08:55	44.9	44.9	44.9	75	37.5	1	4	90	0.00	29.886 
09:00	45.1	45.1	45.1	75	37.7	0	2	90	0.00	29.895 
09:05	45.4	45.4	45.4	74	37.6	0	3	90	0.00	29.895 
09:10	45.7	45.7	45.7	74	37.9	0	1	90	0.00	29.895 
09:15	45.8	45.8	45.8	73	37.6	0	1	90	0.00	29.908 
09:20	46.2	46.2	46.2	73	38.0	0	1	90	0.00	29.908 
09:25	46.4	46.4	46.4	72	37.9	0	3	90	0.00	29.908 
09:30	46.5	46.5	46.5	73	38.3	0	1	90	0.00	29.904 
09:35	46.8	46.8	46.8	71	37.9	0	3	90	0.00	29.904 
09:40	47.1	47.1	47.1	72	38.5	0	1	90	0.00	29.904 
09:45	47.4	47.4	47.4	71	38.5	0	1	90	0.00	29.901 
09:50	47.6	47.6	47.6	70	38.3	1	3	90	0.00	29.901 
09:55	47.9	47.9	47.9	71	39.0	0	4	90	0.00	29.901 
10:00	48.2	48.2	48.2	69	38.5	1	4	90	0.00	29.896 
10:05	48.8	48.8	48.8	69	39.1	1	5	90	0.00	29.896 
10:10	49.2	49.2	49.2	66	38.3	1	2	90	0.00	29.896 
10:15	49.5	49.5	49.5	67	39.0	1	5	112	0.00	29.896 
10:20	49.4	49.4	49.4	68	39.3	2	4	112	0.00	29.896 
10:25	49.8	49.8	49.8	67	39.3	1	3	112	0.00	29.896 
10:30	50.2	50.2	50.2	69	40.4	1	4	112	0.00	29.894 
10:35	50.4	50.4	50.4	66	39.5	1	4	90	0.00	29.894 
10:40	50.5	50.5	50.5	66	39.6	1	5	90	0.00	29.894 
10:45	50.8	50.8	50.8	65	39.5	1	4	112	0.00	29.892 
10:50	50.8	50.8	50.8	65	39.5	2	5	112	0.00	29.892 
10:55	51.0	51.0	51.0	66	40.0	1	5	112	0.00	29.892 
11:00	51.6	51.6	51.6	64	39.8	1	3	112	0.00	29.894 
11:05	52.3	52.3	52.3	63	40.1	1	2	112	0.00	29.894 
11:10	52.9	52.9	52.9	64	41.1	1	3	112	0.00	29.894 
11:15	53.2	53.2	53.2	64	41.3	1	4	112	0.00	29.895 
11:20	53.9	53.9	53.9	61	40.8	1	4	112	0.00	29.895 
11:25	54.7	54.7	54.7	59	40.7	1	3	112	0.00	29.895 
11:30	54.8	54.8	54.8	59	40.7	1	3	112	0.00	29.885 
11:35	54.5	54.5	54.5	59	40.5	2	5	90	0.00	29.885 
11:40	54.4	54.4	54.4	62	41.7	1	3	90	0.00	29.885 
11:45	54.7	54.7	54.7	60	41.1	1	4	112	0.00	29.882 
11:50	55.4	55.4	55.4	61	42.2	1	4	90	0.00	29.882 
11:55	55.9	55.9	55.9	57	40.9	2	4	112	0.00	29.882 
12:00	56.2	56.2	56.2	57	41.2	1	4	112	0.00	29.877 
12:05	56.9	56.9	56.9	58	42.3	1	4	135	0.00	29.877 
12:10	57.2	57.2	57.2	57	42.1	1	4	112	0.00	29.877 
12:15	57.3	57.3	57.3	56	41.7	1	4	90	0.00	29.876 
12:20	57.5	57.5	57.5	53	40.5	0	2	90	0.00	29.876 
12:25	58.1	58.1	58.1	54	41.5	0	2	90	0.00	29.876 
12:30	58.9	58.9	58.9	53	41.8	1	3	90	0.00	29.865 
12:35	59.0	59.0	59.0	53	41.9	1	4	90	0.00	29.865 
12:40	58.9	58.9	58.9	51	40.8	2	4	90	0.00	29.865 
12:45	59.2	59.2	59.2	52	41.6	1	4	90	0.00	29.864 
12:50	59.8	59.8	59.8	50	41.1	1	2	90	0.00	29.864 
12:55	59.6	59.6	59.6	51	41.4	2	4	112	0.00	29.864 
13:00	59.6	59.6	59.6	50	40.9	1	3	112	0.00	29.864 
13:05	60.1	60.1	60.1	52	42.4	0	2	112	0.00	29.864 
13:10	60.9	60.9	60.9	50	42.1	1	4	112	0.00	29.864 
13:15	61.0	61.0	61.0	53	43.7	1	4	112	0.00	29.864 
13:20	60.7	60.7	60.7	47	40.3	1	3	292	0.00	29.864 
13:25	60.9	60.9	60.9	48	41.1	0	1	292	0.00	29.864 
13:30	61.6	61.6	61.6	48	41.7	1	3	112	0.00	29.859 
13:35	62.0	62.0	62.0	48	42.1	1	3	112	0.00	29.859 
13:40	62.9	62.9	62.9	54	46.0	0	1	112	0.00	29.859 
13:45	63.5	63.5	63.5	51	45.0	0	2	292	0.00	29.857 
13:50	63.9	63.9	63.9	50	44.9	1	2	292	0.00	29.857 
13:55	64.2	64.2	64.2	49	44.6	1	3	112	0.00	29.857 
14:00	64.5	64.5	64.5	46	43.3	1	3	270	0.00	29.857 
14:05	64.0	64.0	64.0	48	43.9	1	2	270	0.00	29.857 
14:10	64.2	64.2	64.2	50	45.2	0	2	270	0.00	29.857 
14:15	64.7	64.7	64.7	48	44.6	1	4	270	0.00	29.851 
14:20	64.7	64.7	64.7	45	42.9	0	2	270	0.00	29.851 
14:25	64.7	64.7	64.7	46	43.4	1	3	270	0.00	29.851 
14:30	64.7	64.7	64.7	46	43.4	1	3	90	0.00	29.845 
14:35	64.8	64.8	64.8	46	43.5	1	4	248	0.00	29.845 
14:40	64.7	64.7	64.7	50	45.6	1	4	112	0.00	29.845 
14:45	65.3	65.3	65.3	47	44.5	0	2	112	0.00	29.838 
14:50	65.8	65.8	65.8	47	45.0	1	3	248	0.00	29.838 
14:55	65.6	65.6	65.6	45	43.7	1	3	248	0.00	29.838 
15:00	66.0	66.0	66.0	46	44.6	0	2	248	0.00	29.836 
15:05	66.8	66.8	66.8	47	45.9	1	4	270	0.00	29.836 
15:10	66.9	66.9	66.9	45	44.9	1	3	292	0.00	29.836 
15:15	67.4	67.4	67.4	43	44.1	1	3	292	0.00	29.827 
15:20	66.4	66.4	66.4	44	43.8	1	3	315	0.00	29.827 
15:25	66.0	66.0	66.0	46	44.6	1	4	112	0.00	29.827 
15:30	66.3	66.3	66.3	45	44.3	0	2	112	0.00	29.826 
15:35	66.8	66.8	66.8	45	44.8	1	3	338	0.00	29.826 
15:40	67.1	67.1	67.1	44	44.5	0	1	315	0.00	29.826 
15:45	66.6	66.6	66.6	43	43.4	0	1	315	0.00	29.819 
15:50	66.8	66.8	66.8	42	43.0	0	2	315	0.00	29.819 
15:55	67.1	67.1	67.1	45	45.0	1	3	315	0.00	29.819 
16:00	67.6	67.6	67.6	43	44.3	1	2	315	0.00	29.811 
16:05	67.3	67.3	67.3	42	43.4	0	3	315	0.00	29.811 
16:10	66.9	66.9	66.9	44	44.3	0	3	292	0.00	29.811 
16:15	67.1	67.1	67.1	45	45.0	0	2	292	0.00	29.811 
16:20	67.1	67.1	67.1	44	44.5	1	5	292	0.00	29.811 
16:25	66.8	66.8	66.8	43	43.6	1	3	112	0.00	29.811 
16:30	66.6	66.6	66.6	42	42.8	0	1	202	0.00	29.807 
16:35	66.4	66.4	66.4	42	42.6	0	2	292	0.00	29.807 
16:40	66.1	66.1	66.1	44	43.5	0	3	0	0.00	29.807 
16:45	66.4	66.4	66.4	45	44.4	0	1	0	0.00	29.806 
16:50	66.8	66.8	66.8	43	43.6	0	2	0	0.00	29.806 
16:55	66.9	66.9	66.9	47	46.0	0	2	0	0.00	29.806 
17:00	67.1	67.1	67.1	41	42.6	0	2	0	0.00	29.801 
17:05	67.1	67.1	67.1	45	45.0	0	1	0	0.00	29.801 
17:10	66.9	66.9	66.9	43	43.7	0	1	0	0.00	29.801 
17:15	67.1	67.1	67.1	45	45.0	0	4	0	0.00	29.804 
17:20	67.4	67.4	67.4	41	42.9	0	4	270	0.00	29.804 
17:25	67.4	67.4	67.4	43	44.1	0	1	270	0.00	29.804 
17:30	67.9	67.9	67.9	43	44.6	0	1	270	0.00	29.799 
17:35	68.1	68.1	68.1	41	43.5	0	2	292	0.00	29.799 
17:40	68.3	68.3	68.3	42	44.3	0	3	292	0.00	29.799 
17:45	67.9	67.9	67.9	41	43.3	0	2	292	0.00	29.802 
17:50	68.3	68.3	68.3	40	43.0	0	1	292	0.00	29.802 
17:55	68.4	68.4	68.4	39	42.5	0	2	292	0.00	29.802 
18:00	68.3	68.3	68.3	41	43.7	0	2	292	0.00	29.803 
18:05	67.6	67.6	67.6	41	43.1	1	2	292	0.00	29.803 
18:10	67.1	67.1	67.1	41	42.6	0	1	292	0.00	29.803 
18:15	66.9	66.9	66.9	43	43.7	0	0	---	0.00	29.806 
18:20	66.6	66.6	66.6	43	43.4	0	1	292	0.00	29.806 
18:25	66.6	66.6	66.6	44	44.0	0	1	292	0.00	29.806 
18:30	66.6	66.6	66.6	43	43.4	0	1	292	0.00	29.804 
18:35	66.8	66.8	66.8	43	43.6	0	1	292	0.00	29.804 
18:40	67.3	67.3	67.3	41	42.8	1	3	292	0.00	29.804 
18:45	67.4	67.4	67.4	39	41.6	0	2	315	0.00	29.806 
18:50	67.3	67.3	67.3	40	42.1	0	1	315	0.00	29.806 
18:55	66.8	66.8	66.8	41	42.3	0	1	315	0.00	29.806 
19:00	66.6	66.6	66.6	42	42.8	0	1	315	0.00	29.808 
19:05	66.8	66.8	66.8	42	43.0	0	1	315	0.00	29.808 
19:10	66.9	66.9	66.9	42	43.1	0	1	315	0.00	29.808 
19:15	66.8	66.8	66.8	46	45.3	0	1	315	0.00	29.808 
19:20	66.3	66.3	66.3	47	45.5	0	1	315	0.00	29.808 
19:25	65.8	65.8	65.8	49	46.1	0	0	---	0.00	29.808 
19:30	65.3	65.3	65.3	47	44.5	0	0	---	0.00	29.808 
19:35	65.0	65.0	65.0	48	44.8	0	0	---	0.00	29.808 
19:40	64.5	64.5	64.5	49	44.9	0	0	---	0.00	29.808 
19:45	64.2	64.2	64.2	50	45.2	0	0	---	0.00	29.811 
19:50	63.7	63.7	63.7	51	45.2	0	2	315	0.00	29.811 
19:55	63.4	63.4	63.4	51	45.0	0	2	315	0.00	29.811 
20:00	63.1	63.1	63.1	53	45.7	0	2	315	0.00	29.813 
20:05	62.7	62.7	62.7	54	45.8	0	0	---	0.00	29.813 
20:10	62.3	62.3	62.3	54	45.4	0	2	315	0.00	29.813 
20:15	62.0	62.0	62.0	54	45.2	0	0	---	0.00	29.812 
20:20	61.5	61.5	61.5	55	45.2	0	0	---	0.00	29.812 
20:25	60.9	60.9	60.9	55	44.6	0	0	---	0.00	29.812 
20:30	60.5	60.5	60.5	56	44.7	0	0	---	0.00	29.816 
20:35	60.2	60.2	60.2	57	44.9	0	0	---	0.00	29.816 
20:40	59.8	59.8	59.8	58	45.0	0	0	---	0.00	29.816 
20:45	59.5	59.5	59.5	58	44.7	0	0	---	0.00	29.826 
20:50	59.2	59.2	59.2	59	44.9	0	0	---	0.00	29.826 
20:55	59.0	59.0	59.0	59	44.7	0	0	---	0.00	29.826 
21:00	58.7	58.7	58.7	60	44.8	0	0	---	0.00	29.828 
21:05	58.6	58.6	58.6	60	44.8	0	0	---	0.00	29.828 
21:10	58.4	58.4	58.4	60	44.6	0	1	315	0.00	29.828 
21:15	58.3	58.3	58.3	60	44.5	0	1	315	0.00	29.827 
21:20	58.1	58.1	58.1	60	44.3	0	0	---	0.00	29.827 
21:25	58.0	58.0	58.0	60	44.2	0	0	---	0.00	29.827 
21:30	57.6	57.6	57.6	60	43.8	0	0	---	0.00	29.832 
21:35	57.3	57.3	57.3	60	43.5	0	0	---	0.00	29.832 
21:40	57.3	57.3	57.3	60	43.5	0	1	315	0.00	29.832 
21:45	57.2	57.2	57.2	60	43.4	0	0	---	0.00	29.841 
21:50	57.0	57.0	57.0	60	43.3	0	3	315	0.00	29.841 
21:55	57.2	57.2	57.2	59	43.0	3	7	90	0.00	29.841 
22:00	57.0	57.0	57.0	58	42.4	2	7	90	0.00	29.847 
22:05	56.6	56.6	56.6	58	42.0	1	4	90	0.00	29.847 
22:10	56.0	56.0	56.0	58	41.4	1	3	90	0.00	29.847 
22:15	55.6	55.6	55.6	58	41.1	1	4	90	0.00	29.850 
22:20	55.1	55.1	55.1	59	41.0	2	4	90	0.00	29.850 
22:25	54.7	54.7	54.7	60	41.1	2	6	90	0.00	29.850 
22:30	54.4	54.4	54.4	59	40.4	2	4	90	0.00	29.854 
22:35	54.1	54.1	54.1	59	40.1	2	5	90	0.00	29.854 
22:40	53.8	53.8	53.8	60	40.2	1	5	90	0.00	29.854 
22:45	53.5	53.5	53.5	60	40.0	1	3	90	0.00	29.857 
22:50	53.1	53.1	53.1	61	40.0	1	2	90	0.00	29.857 
22:55	52.8	52.8	52.8	61	39.7	0	3	90	0.00	29.857 
23:00	52.5	52.5	52.5	62	39.9	0	2	90	0.00	29.861 
23:05	52.0	52.0	52.0	62	39.4	0	3	90	0.00	29.861 
23:10	51.7	51.7	51.7	63	39.5	0	2	90	0.00	29.861 
23:15	51.4	51.4	51.4	64	39.6	0	1	90	0.00	29.861 
23:20	51.0	51.0	51.0	64	39.3	0	1	90	0.00	29.861 
23:25	50.7	50.7	50.7	65	39.4	0	2	90	0.00	29.861 
23:30	50.4	50.4	50.4	65	39.1	1	2	90	0.00	29.864 
23:35	50.2	50.2	50.2	65	38.9	1	2	90	0.00	29.864 
23:40	50.1	50.1	50.1	65	38.8	0	2	90	0.00	29.864 
23:45	49.8	49.8	49.8	65	38.5	0	1	90	0.00	29.867 
23:50	49.6	49.6	49.6	65	38.3	0	0	---	0.00	29.867 
23:55	49.2	49.2	49.2	66	38.3	0	0	---	0.00	29.867 

CoCoRaHS
IN-AL-39
A2 Web Hosting
Creative Commons License
GoDaddy
search engine by freefind advanced

loaded 2018-11-13 02:30:01 • last modified 2010-11-18 10:43:29
Privacy PolicyDisclaimer
• wx.awcolley.com is powered by PmWiki v.2002016 •
• all content (unless otherwise noted) © 2018 A W Colley